sensor_id;sensor_type;location;lat;lon;timestamp;pressure;altitude;pressure_sealevel;temperature;humidity
28665;BME280;15850;47.524;7.814;2023-09-30T00:01:50;98640.19;;;16.58;100.00
28665;BME280;15850;47.524;7.814;2023-09-30T00:04:17;98620.84;;;16.38;100.00
28665;BME280;15850;47.524;7.814;2023-09-30T00:06:42;97905.59;;;11.78;100.00
28665;BME280;15850;47.524;7.814;2023-09-30T00:09:08;98335.94;;;14.37;100.00
28665;BME280;15850;47.524;7.814;2023-09-30T00:11:33;98460.75;;;15.31;100.00
28665;BME280;15850;47.524;7.814;2023-09-30T00:13:59;98279.09;;;14.05;100.00
28665;BME280;15850;47.524;7.814;2023-09-30T00:16:24;98287.22;;;14.02;100.00
28665;BME280;15850;47.524;7.814;2023-09-30T00:18:50;98627.66;;;16.29;100.00
28665;BME280;15850;47.524;7.814;2023-09-30T00:21:16;98479.75;;;15.23;100.00
28665;BME280;15850;47.524;7.814;2023-09-30T00:23:42;98648.16;;;16.03;100.00
28665;BME280;15850;47.524;7.814;2023-09-30T00:26:07;98636.72;;;16.01;100.00
28665;BME280;15850;47.524;7.814;2023-09-30T00:28:34;98505.72;;;15.14;100.00
28665;BME280;15850;47.524;7.814;2023-09-30T00:30:59;98238.91;;;13.20;100.00
28665;BME280;15850;47.524;7.814;2023-09-30T00:33:25;98634.09;;;15.77;100.00
28665;BME280;15850;47.524;7.814;2023-09-30T00:35:50;98469.72;;;14.75;100.00
28665;BME280;15850;47.524;7.814;2023-09-30T00:38:17;98034.25;;;11.92;100.00
28665;BME280;15850;47.524;7.814;2023-09-30T00:40:47;98316.88;;;13.63;100.00
28665;BME280;15850;47.524;7.814;2023-09-30T00:43:18;98616.75;;;15.48;100.00
28665;BME280;15850;47.524;7.814;2023-09-30T00:45:44;98290.09;;;13.44;100.00
28665;BME280;15850;47.524;7.814;2023-09-30T00:48:09;98614.88;;;15.64;100.00
28665;BME280;15850;47.524;7.814;2023-09-30T00:50:35;98244.63;;;13.15;100.00
28665;BME280;15850;47.524;7.814;2023-09-30T00:53:01;98194.03;;;12.84;100.00
28665;BME280;15850;47.524;7.814;2023-09-30T00:55:28;98567.22;;;15.16;100.00
28665;BME280;15850;47.524;7.814;2023-09-30T00:57:54;98584.03;;;15.27;100.00
28665;BME280;15850;47.524;7.814;2023-09-30T01:00:20;98475.25;;;14.50;100.00
28665;BME280;15850;47.524;7.814;2023-09-30T01:02:45;98582.31;;;15.22;100.00
28665;BME280;15850;47.524;7.814;2023-09-30T01:05:11;98564.72;;;15.23;100.00
28665;BME280;15850;47.524;7.814;2023-09-30T01:07:36;98508.38;;;14.98;100.00
28665;BME280;15850;47.524;7.814;2023-09-30T01:10:02;98541.78;;;15.16;100.00
28665;BME280;15850;47.524;7.814;2023-09-30T01:12:29;98505.44;;;14.78;100.00
28665;BME280;15850;47.524;7.814;2023-09-30T01:14:57;98618.56;;;15.68;100.00
28665;BME280;15850;47.524;7.814;2023-09-30T01:17:23;98623.00;;;15.73;100.00
28665;BME280;15850;47.524;7.814;2023-09-30T01:19:48;98463.97;;;14.80;100.00
28665;BME280;15850;47.524;7.814;2023-09-30T01:22:15;98378.84;;;14.20;100.00
28665;BME280;15850;47.524;7.814;2023-09-30T01:24:41;98609.03;;;15.78;100.00
28665;BME280;15850;47.524;7.814;2023-09-30T01:27:07;98428.75;;;14.66;100.00
28665;BME280;15850;47.524;7.814;2023-09-30T01:29:33;98576.09;;;15.50;100.00
28665;BME280;15850;47.524;7.814;2023-09-30T01:31:58;98609.53;;;15.56;100.00
28665;BME280;15850;47.524;7.814;2023-09-30T01:34:24;98304.56;;;13.45;100.00
28665;BME280;15850;47.524;7.814;2023-09-30T01:36:49;98544.84;;;15.26;100.00
28665;BME280;15850;47.524;7.814;2023-09-30T01:39:17;98609.63;;;15.59;100.00
28665;BME280;15850;47.524;7.814;2023-09-30T01:41:42;98527.06;;;15.08;100.00
28665;BME280;15850;47.524;7.814;2023-09-30T01:44:08;98344.44;;;13.95;100.00
28665;BME280;15850;47.524;7.814;2023-09-30T01:46:33;98536.66;;;15.02;100.00
28665;BME280;15850;47.524;7.814;2023-09-30T01:48:59;98617.75;;;15.56;100.00
28665;BME280;15850;47.524;7.814;2023-09-30T01:51:25;97966.16;;;11.38;100.00
28665;BME280;15850;47.524;7.814;2023-09-30T01:53:50;98613.91;;;15.44;100.00
28665;BME280;15850;47.524;7.814;2023-09-30T01:56:17;98618.59;;;15.44;100.00
28665;BME280;15850;47.524;7.814;2023-09-30T01:58:43;98560.22;;;14.91;100.00
28665;BME280;15850;47.524;7.814;2023-09-30T02:01:08;98549.47;;;14.98;100.00
28665;BME280;15850;47.524;7.814;2023-09-30T02:03:34;98569.44;;;14.98;100.00
28665;BME280;15850;47.524;7.814;2023-09-30T02:06:00;98437.69;;;14.14;100.00
28665;BME280;15850;47.524;7.814;2023-09-30T02:08:26;98553.25;;;14.93;100.00
28665;BME280;15850;47.524;7.814;2023-09-30T02:10:51;98291.28;;;13.10;100.00
28665;BME280;15850;47.524;7.814;2023-09-30T02:13:19;98529.66;;;14.64;100.00
28665;BME280;15850;47.524;7.814;2023-09-30T02:15:45;98554.28;;;14.89;100.00
28665;BME280;15850;47.524;7.814;2023-09-30T02:18:11;98615.53;;;15.33;100.00
28665;BME280;15850;47.524;7.814;2023-09-30T02:20:37;98553.13;;;14.90;100.00
28665;BME280;15850;47.524;7.814;2023-09-30T02:23:04;98464.59;;;14.37;100.00
28665;BME280;15850;47.524;7.814;2023-09-30T02:25:29;98526.44;;;14.62;100.00
28665;BME280;15850;47.524;7.814;2023-09-30T02:27:55;98532.59;;;14.71;100.00
28665;BME280;15850;47.524;7.814;2023-09-30T02:30:22;98503.25;;;14.35;100.00
28665;BME280;15850;47.524;7.814;2023-09-30T02:32:47;98134.63;;;12.11;100.00
28665;BME280;15850;47.524;7.814;2023-09-30T02:35:13;98102.88;;;11.73;100.00
28665;BME280;15850;47.524;7.814;2023-09-30T02:37:39;98254.84;;;12.60;100.00
28665;BME280;15850;47.524;7.814;2023-09-30T02:40:06;98519.56;;;14.19;100.00
28665;BME280;15850;47.524;7.814;2023-09-30T02:42:32;98518.41;;;14.20;100.00
28665;BME280;15850;47.524;7.814;2023-09-30T02:44:59;98498.78;;;14.06;100.00
28665;BME280;15850;47.524;7.814;2023-09-30T02:47:26;98473.03;;;13.95;100.00
28665;BME280;15850;47.524;7.814;2023-09-30T02:49:51;98453.41;;;13.93;100.00
28665;BME280;15850;47.524;7.814;2023-09-30T02:52:17;98224.22;;;12.55;100.00
28665;BME280;15850;47.524;7.814;2023-09-30T02:54:43;98487.41;;;14.04;100.00
28665;BME280;15850;47.524;7.814;2023-09-30T02:57:08;98632.34;;;14.83;100.00
28665;BME280;15850;47.524;7.814;2023-09-30T02:59:34;98627.09;;;14.90;100.00
28665;BME280;15850;47.524;7.814;2023-09-30T03:01:59;98586.81;;;14.66;100.00
28665;BME280;15850;47.524;7.814;2023-09-30T03:04:26;98527.66;;;14.28;100.00
28665;BME280;15850;47.524;7.814;2023-09-30T03:06:52;98475.84;;;13.86;100.00
28665;BME280;15850;47.524;7.814;2023-09-30T03:09:17;98180.28;;;12.02;100.00
28665;BME280;15850;47.524;7.814;2023-09-30T03:11:43;98202.50;;;12.13;100.00
28665;BME280;15850;47.524;7.814;2023-09-30T03:14:16;98324.59;;;13.03;100.00
28665;BME280;15850;47.524;7.814;2023-09-30T03:17:08;98435.94;;;13.73;100.00
28665;BME280;15850;47.524;7.814;2023-09-30T03:20:10;98241.44;;;12.55;100.00
28665;BME280;15850;47.524;7.814;2023-09-30T03:22:39;98246.34;;;12.62;100.00
28665;BME280;15850;47.524;7.814;2023-09-30T03:25:35;98605.19;;;15.02;100.00
28665;BME280;15850;47.524;7.814;2023-09-30T03:28:07;98362.97;;;13.40;100.00
28665;BME280;15850;47.524;7.814;2023-09-30T03:30:49;98267.81;;;12.63;100.00
28665;BME280;15850;47.524;7.814;2023-09-30T03:33:28;98237.31;;;12.49;100.00
28665;BME280;15850;47.524;7.814;2023-09-30T03:36:20;98105.00;;;11.68;100.00
28665;BME280;15850;47.524;7.814;2023-09-30T03:39:19;98433.88;;;13.70;100.00
28665;BME280;15850;47.524;7.814;2023-09-30T03:41:50;98622.88;;;14.92;100.00
28665;BME280;15850;47.524;7.814;2023-09-30T03:44:28;98045.47;;;11.16;100.00
28665;BME280;15850;47.524;7.814;2023-09-30T03:47:05;98619.00;;;14.93;100.00
28665;BME280;15850;47.524;7.814;2023-09-30T03:49:36;98370.81;;;13.29;100.00
28665;BME280;15850;47.524;7.814;2023-09-30T03:52:07;98024.97;;;11.39;100.00
28665;BME280;15850;47.524;7.814;2023-09-30T03:54:32;97982.66;;;11.00;100.00
28665;BME280;15850;47.524;7.814;2023-09-30T03:57:05;98579.94;;;14.96;100.00
28665;BME280;15850;47.524;7.814;2023-09-30T03:59:40;98264.16;;;12.92;100.00
28665;BME280;15850;47.524;7.814;2023-09-30T04:05:13;98565.44;;;15.08;100.00
28665;BME280;15850;47.524;7.814;2023-09-30T04:08:07;98322.09;;;13.31;100.00
28665;BME280;15850;47.524;7.814;2023-09-30T04:13:47;98476.47;;;14.41;100.00
28665;BME280;15850;47.524;7.814;2023-09-30T04:16:50;98332.69;;;13.45;100.00
28665;BME280;15850;47.524;7.814;2023-09-30T04:19:26;98581.09;;;14.95;100.00
28665;BME280;15850;47.524;7.814;2023-09-30T04:21:58;98583.38;;;14.81;100.00
28665;BME280;15850;47.524;7.814;2023-09-30T04:24:43;98616.34;;;15.09;100.00
28665;BME280;15850;47.524;7.814;2023-09-30T04:27:24;98436.31;;;13.96;100.00
28665;BME280;15850;47.524;7.814;2023-09-30T04:30:14;98409.16;;;13.91;100.00
28665;BME280;15850;47.524;7.814;2023-09-30T04:32:50;98248.31;;;12.86;100.00
28665;BME280;15850;47.524;7.814;2023-09-30T04:35:25;98216.97;;;12.59;100.00
28665;BME280;15850;47.524;7.814;2023-09-30T04:38:10;98603.69;;;14.80;100.00
28665;BME280;15850;47.524;7.814;2023-09-30T04:43:49;98250.56;;;12.72;100.00
28665;BME280;15850;47.524;7.814;2023-09-30T04:46:21;98616.72;;;15.08;100.00
28665;BME280;15850;47.524;7.814;2023-09-30T04:52:37;98474.63;;;14.08;100.00
28665;BME280;15850;47.524;7.814;2023-09-30T04:55:43;98511.81;;;14.21;100.00
28665;BME280;15850;47.524;7.814;2023-09-30T05:01:41;98261.28;;;12.43;100.00
28665;BME280;15850;47.524;7.814;2023-09-30T05:04:23;98152.19;;;11.81;100.00
28665;BME280;15850;47.524;7.814;2023-09-30T05:07:06;98640.25;;;14.84;100.00
28665;BME280;15850;47.524;7.814;2023-09-30T05:09:48;98291.06;;;12.69;100.00
28665;BME280;15850;47.524;7.814;2023-09-30T05:12:20;98212.88;;;12.19;100.00
28665;BME280;15850;47.524;7.814;2023-09-30T05:14:46;98457.03;;;13.72;100.00
28665;BME280;15850;47.524;7.814;2023-09-30T05:17:13;98546.03;;;14.40;100.00
28665;BME280;15850;47.524;7.814;2023-09-30T05:19:38;98636.34;;;14.85;100.00
28665;BME280;15850;47.524;7.814;2023-09-30T05:22:09;98631.88;;;14.93;100.00
28665;BME280;15850;47.524;7.814;2023-09-30T05:24:38;98639.66;;;15.03;100.00
28665;BME280;15850;47.524;7.814;2023-09-30T05:27:04;98594.69;;;14.67;100.00
28665;BME280;15850;47.524;7.814;2023-09-30T05:29:30;98456.47;;;13.79;100.00
28665;BME280;15850;47.524;7.814;2023-09-30T05:31:55;98540.53;;;14.40;100.00
28665;BME280;15850;47.524;7.814;2023-09-30T05:34:22;98652.22;;;15.04;100.00
28665;BME280;15850;47.524;7.814;2023-09-30T05:36:48;98397.38;;;13.41;100.00
28665;BME280;15850;47.524;7.814;2023-09-30T05:39:13;98633.72;;;14.89;100.00
28665;BME280;15850;47.524;7.814;2023-09-30T05:41:40;98578.25;;;14.55;100.00
28665;BME280;15850;47.524;7.814;2023-09-30T05:44:05;98601.72;;;14.44;100.00
28665;BME280;15850;47.524;7.814;2023-09-30T05:46:31;98611.09;;;14.55;100.00
28665;BME280;15850;47.524;7.814;2023-09-30T05:48:56;98577.63;;;14.49;100.00
28665;BME280;15850;47.524;7.814;2023-09-30T05:51:23;98463.53;;;13.92;100.00
28665;BME280;15850;47.524;7.814;2023-09-30T05:53:49;98661.81;;;15.22;100.00
28665;BME280;15850;47.524;7.814;2023-09-30T05:56:14;98652.88;;;15.25;100.00
28665;BME280;15850;47.524;7.814;2023-09-30T05:58:40;98584.66;;;14.71;100.00
28665;BME280;15850;47.524;7.814;2023-09-30T06:01:07;98234.09;;;12.47;100.00
28665;BME280;15850;47.524;7.814;2023-09-30T06:03:33;98211.22;;;12.39;100.00
28665;BME280;15850;47.524;7.814;2023-09-30T06:05:58;98667.97;;;15.32;100.00
28665;BME280;15850;47.524;7.814;2023-09-30T06:08:25;98605.66;;;14.92;100.00
28665;BME280;15850;47.524;7.814;2023-09-30T06:10:50;98485.25;;;14.22;100.00
28665;BME280;15850;47.524;7.814;2023-09-30T06:13:16;98597.75;;;15.02;100.00
28665;BME280;15850;47.524;7.814;2023-09-30T06:15:42;98675.03;;;15.57;100.00
28665;BME280;15850;47.524;7.814;2023-09-30T06:18:08;98685.75;;;15.62;100.00
28665;BME280;15850;47.524;7.814;2023-09-30T06:20:34;98694.34;;;15.73;100.00
28665;BME280;15850;47.524;7.814;2023-09-30T06:23:00;98699.94;;;15.77;100.00
28665;BME280;15850;47.524;7.814;2023-09-30T06:25:27;98658.13;;;15.67;100.00
28665;BME280;15850;47.524;7.814;2023-09-30T06:27:53;98677.03;;;15.85;100.00
28665;BME280;15850;47.524;7.814;2023-09-30T06:30:19;98700.44;;;15.94;100.00
28665;BME280;15850;47.524;7.814;2023-09-30T06:32:45;98691.06;;;15.95;100.00
28665;BME280;15850;47.524;7.814;2023-09-30T06:35:11;98657.50;;;15.86;100.00
28665;BME280;15850;47.524;7.814;2023-09-30T06:37:36;98654.34;;;16.00;100.00
28665;BME280;15850;47.524;7.814;2023-09-30T06:40:02;98689.97;;;16.40;100.00
28665;BME280;15850;47.524;7.814;2023-09-30T06:42:29;98629.78;;;16.19;100.00
28665;BME280;15850;47.524;7.814;2023-09-30T06:44:55;98687.25;;;16.56;100.00
28665;BME280;15850;47.524;7.814;2023-09-30T06:47:21;98681.59;;;16.49;100.00
28665;BME280;15850;47.524;7.814;2023-09-30T06:49:46;98716.50;;;16.64;100.00
28665;BME280;15850;47.524;7.814;2023-09-30T06:52:12;98695.78;;;16.67;100.00
28665;BME280;15850;47.524;7.814;2023-09-30T06:54:37;98706.13;;;16.58;100.00
28665;BME280;15850;47.524;7.814;2023-09-30T06:57:03;98653.25;;;16.17;100.00
28665;BME280;15850;47.524;7.814;2023-09-30T06:59:31;98665.34;;;16.44;100.00
28665;BME280;15850;47.524;7.814;2023-09-30T07:01:57;98431.22;;;15.24;100.00
28665;BME280;15850;47.524;7.814;2023-09-30T07:04:22;98581.16;;;16.20;100.00
28665;BME280;15850;47.524;7.814;2023-09-30T07:06:48;98675.34;;;16.80;100.00
28665;BME280;15850;47.524;7.814;2023-09-30T07:09:14;98681.56;;;16.93;100.00
28665;BME280;15850;47.524;7.814;2023-09-30T07:11:39;98712.06;;;17.20;100.00
28665;BME280;15850;47.524;7.814;2023-09-30T07:14:05;98673.72;;;17.11;100.00
28665;BME280;15850;47.524;7.814;2023-09-30T07:16:33;98713.81;;;17.28;100.00
28665;BME280;15850;47.524;7.814;2023-09-30T07:18:58;98709.47;;;17.27;100.00
28665;BME280;15850;47.524;7.814;2023-09-30T07:21:24;98684.56;;;16.88;100.00
28665;BME280;15850;47.524;7.814;2023-09-30T07:23:49;98678.81;;;16.93;100.00
28665;BME280;15850;47.524;7.814;2023-09-30T07:26:15;98677.47;;;17.03;100.00
28665;BME280;15850;47.524;7.814;2023-09-30T07:28:40;98734.94;;;17.40;100.00
28665;BME280;15850;47.524;7.814;2023-09-30T07:31:06;98642.25;;;17.08;100.00
28665;BME280;15850;47.524;7.814;2023-09-30T07:33:33;98560.19;;;16.59;100.00
28665;BME280;15850;47.524;7.814;2023-09-30T07:39:19;98741.72;;;18.13;100.00
28665;BME280;15850;47.524;7.814;2023-09-30T07:41:54;98722.28;;;18.25;100.00
28665;BME280;15850;47.524;7.814;2023-09-30T07:44:19;98152.16;;;14.66;100.00
28665;BME280;15850;47.524;7.814;2023-09-30T07:46:45;98722.84;;;18.34;100.00
28665;BME280;15850;47.524;7.814;2023-09-30T07:49:12;98224.13;;;15.11;100.00
28665;BME280;15850;47.524;7.814;2023-09-30T07:51:37;98562.47;;;17.24;100.00
28665;BME280;15850;47.524;7.814;2023-09-30T07:54:03;98628.88;;;17.77;100.00
28665;BME280;15850;47.524;7.814;2023-09-30T07:56:29;98656.34;;;17.93;100.00
28665;BME280;15850;47.524;7.814;2023-09-30T07:58:55;98714.53;;;17.92;100.00
28665;BME280;15850;47.524;7.814;2023-09-30T08:01:20;98679.06;;;17.90;100.00
28665;BME280;15850;47.524;7.814;2023-09-30T08:03:46;98716.53;;;18.34;100.00
28665;BME280;15850;47.524;7.814;2023-09-30T08:06:13;98717.28;;;17.92;100.00
28665;BME280;15850;47.524;7.814;2023-09-30T08:08:39;98676.88;;;17.45;100.00
28665;BME280;15850;47.524;7.814;2023-09-30T08:11:04;98726.09;;;17.66;100.00
28665;BME280;15850;47.524;7.814;2023-09-30T08:13:31;98633.28;;;17.11;100.00
28665;BME280;15850;47.524;7.814;2023-09-30T08:15:56;98707.66;;;17.50;100.00
28665;BME280;15850;47.524;7.814;2023-09-30T08:18:22;98666.88;;;17.36;100.00
28665;BME280;15850;47.524;7.814;2023-09-30T08:20:47;98715.41;;;18.15;100.00
28665;BME280;15850;47.524;7.814;2023-09-30T08:23:14;98735.25;;;18.44;100.00
28665;BME280;15850;47.524;7.814;2023-09-30T08:25:40;98718.28;;;18.61;98.12
28665;BME280;15850;47.524;7.814;2023-09-30T08:28:05;98716.59;;;18.76;98.14
28665;BME280;15850;47.524;7.814;2023-09-30T08:30:32;98509.56;;;17.70;97.05
28665;BME280;15850;47.524;7.814;2023-09-30T08:32:58;98380.94;;;17.01;95.09
28665;BME280;15850;47.524;7.814;2023-09-30T08:35:24;98555.75;;;18.19;94.29
28665;BME280;15850;47.524;7.814;2023-09-30T08:37:49;98405.47;;;16.90;94.91
28665;BME280;15850;47.524;7.814;2023-09-30T08:40:19;98556.53;;;16.87;100.00
28665;BME280;15850;47.524;7.814;2023-09-30T08:42:48;98729.97;;;18.35;100.00
28665;BME280;15850;47.524;7.814;2023-09-30T08:45:16;98639.53;;;17.98;99.92
28665;BME280;15850;47.524;7.814;2023-09-30T08:47:43;98688.75;;;18.81;97.98
28665;BME280;15850;47.524;7.814;2023-09-30T08:50:09;98647.44;;;18.85;94.85
28665;BME280;15850;47.524;7.814;2023-09-30T08:52:35;98700.78;;;19.19;94.39
28665;BME280;15850;47.524;7.814;2023-09-30T08:55:02;98599.50;;;18.70;95.30
28665;BME280;15850;47.524;7.814;2023-09-30T08:57:29;98554.00;;;18.34;94.23
28665;BME280;15850;47.524;7.814;2023-09-30T08:59:56;98609.00;;;18.95;92.71
28665;BME280;15850;47.524;7.814;2023-09-30T09:02:21;98636.66;;;19.25;94.15
28665;BME280;15850;47.524;7.814;2023-09-30T09:04:47;98380.06;;;17.59;89.68
28665;BME280;15850;47.524;7.814;2023-09-30T09:07:12;98732.75;;;19.46;90.29
28665;BME280;15850;47.524;7.814;2023-09-30T09:09:38;98635.09;;;19.01;88.17
28665;BME280;15850;47.524;7.814;2023-09-30T09:12:04;98699.00;;;19.83;86.32
28665;BME280;15850;47.524;7.814;2023-09-30T09:14:39;98713.34;;;19.66;85.30
28665;BME280;15850;47.524;7.814;2023-09-30T09:17:06;98713.22;;;19.32;87.09
28665;BME280;15850;47.524;7.814;2023-09-30T09:19:32;98730.19;;;19.34;91.13
28665;BME280;15850;47.524;7.814;2023-09-30T09:21:59;98688.19;;;18.52;94.70
28665;BME280;15850;47.524;7.814;2023-09-30T09:24:29;98674.06;;;18.77;91.31
28665;BME280;15850;47.524;7.814;2023-09-30T09:27:04;98645.88;;;18.87;89.29
28665;BME280;15850;47.524;7.814;2023-09-30T09:29:29;98727.22;;;20.00;84.72
28665;BME280;15850;47.524;7.814;2023-09-30T09:32:06;98591.59;;;19.44;84.58
28665;BME280;15850;47.524;7.814;2023-09-30T09:34:32;98646.53;;;19.83;82.88
28665;BME280;15850;47.524;7.814;2023-09-30T09:36:57;98726.47;;;20.03;86.12
28665;BME280;15850;47.524;7.814;2023-09-30T09:39:29;98705.16;;;19.46;90.23
28665;BME280;15850;47.524;7.814;2023-09-30T09:41:54;98545.63;;;18.49;90.20
28665;BME280;15850;47.524;7.814;2023-09-30T09:44:20;98691.94;;;19.33;88.27
28665;BME280;15850;47.524;7.814;2023-09-30T09:46:47;98687.00;;;19.19;88.98
28665;BME280;15850;47.524;7.814;2023-09-30T09:49:16;98692.63;;;18.80;92.97
28665;BME280;15850;47.524;7.814;2023-09-30T09:51:42;98682.00;;;19.01;91.61
28665;BME280;15850;47.524;7.814;2023-09-30T09:54:09;98476.09;;;17.87;91.28
28665;BME280;15850;47.524;7.814;2023-09-30T09:56:34;98672.75;;;19.17;90.43
28665;BME280;15850;47.524;7.814;2023-09-30T09:59:02;98516.84;;;18.24;91.60
28665;BME280;15850;47.524;7.814;2023-09-30T10:01:30;98666.09;;;19.18;89.37
28665;BME280;15850;47.524;7.814;2023-09-30T10:03:58;98642.59;;;19.01;91.79
28665;BME280;15850;47.524;7.814;2023-09-30T10:06:25;98539.16;;;18.15;90.13
28665;BME280;15850;47.524;7.814;2023-09-30T10:08:51;98666.41;;;19.13;89.58
28665;BME280;15850;47.524;7.814;2023-09-30T10:11:19;98553.59;;;18.31;88.84
28665;BME280;15850;47.524;7.814;2023-09-30T10:13:55;98619.19;;;18.91;88.66
28665;BME280;15850;47.524;7.814;2023-09-30T10:16:49;98656.94;;;19.14;89.27
28665;BME280;15850;47.524;7.814;2023-09-30T10:19:15;98646.25;;;19.09;88.38
28665;BME280;15850;47.524;7.814;2023-09-30T10:22:20;98593.09;;;19.12;85.96
28665;BME280;15850;47.524;7.814;2023-09-30T10:24:46;98513.69;;;18.45;86.17
28665;BME280;15850;47.524;7.814;2023-09-30T10:27:28;98460.94;;;17.97;84.82
28665;BME280;15850;47.524;7.814;2023-09-30T10:29:56;98618.06;;;19.22;83.60
28665;BME280;15850;47.524;7.814;2023-09-30T10:32:22;98656.97;;;19.40;82.73
28665;BME280;15850;47.524;7.814;2023-09-30T10:34:48;98663.09;;;19.57;84.88
28665;BME280;15850;47.524;7.814;2023-09-30T10:37:23;98665.50;;;19.32;82.73
28665;BME280;15850;47.524;7.814;2023-09-30T10:39:53;98596.09;;;18.76;82.75
28665;BME280;15850;47.524;7.814;2023-09-30T10:42:46;98613.88;;;19.06;78.93
28665;BME280;15850;47.524;7.814;2023-09-30T10:45:41;98638.88;;;19.43;80.42
28665;BME280;15850;47.524;7.814;2023-09-30T10:48:34;98635.31;;;19.69;77.41
28665;BME280;15850;47.524;7.814;2023-09-30T10:51:01;98635.56;;;19.87;80.03
28665;BME280;15850;47.524;7.814;2023-09-30T10:53:28;98450.25;;;18.68;80.58
28665;BME280;15850;47.524;7.814;2023-09-30T10:55:54;98636.75;;;19.89;74.26
28665;BME280;15850;47.524;7.814;2023-09-30T10:58:20;98607.47;;;19.81;72.08
28665;BME280;15850;47.524;7.814;2023-09-30T11:00:52;98262.06;;;17.54;69.83
28665;BME280;15850;47.524;7.814;2023-09-30T11:03:19;98636.47;;;19.98;70.00
28665;BME280;15850;47.524;7.814;2023-09-30T11:05:47;98587.53;;;19.65;69.23
28665;BME280;15850;47.524;7.814;2023-09-30T11:08:14;98624.00;;;19.78;66.78
28665;BME280;15850;47.524;7.814;2023-09-30T11:10:48;98524.75;;;19.28;67.26
28665;BME280;15850;47.524;7.814;2023-09-30T11:13:13;98634.84;;;19.93;66.18
28665;BME280;15850;47.524;7.814;2023-09-30T11:15:39;98469.38;;;18.84;67.70
28665;BME280;15850;47.524;7.814;2023-09-30T11:18:13;98581.50;;;19.89;63.77
28665;BME280;15850;47.524;7.814;2023-09-30T11:20:39;98628.19;;;20.35;65.88
28665;BME280;15850;47.524;7.814;2023-09-30T11:23:05;98617.78;;;20.59;67.82
28665;BME280;15850;47.524;7.814;2023-09-30T11:25:35;98619.19;;;20.83;65.58
28665;BME280;15850;47.524;7.814;2023-09-30T11:28:14;98591.38;;;20.65;63.08
28665;BME280;15850;47.524;7.814;2023-09-30T11:30:53;98561.94;;;20.87;64.42
28665;BME280;15850;47.524;7.814;2023-09-30T11:33:19;98163.25;;;17.98;64.05
28665;BME280;15850;47.524;7.814;2023-09-30T11:35:55;98479.03;;;19.98;63.68
28665;BME280;15850;47.524;7.814;2023-09-30T11:38:21;98616.50;;;21.49;63.30
28665;BME280;15850;47.524;7.814;2023-09-30T11:40:58;98620.19;;;21.74;65.71
28665;BME280;15850;47.524;7.814;2023-09-30T11:43:25;98311.63;;;19.79;62.22
28665;BME280;15850;47.524;7.814;2023-09-30T11:45:50;98495.75;;;21.23;62.78
28665;BME280;15850;47.524;7.814;2023-09-30T11:48:17;98609.59;;;21.94;62.63
28665;BME280;15850;47.524;7.814;2023-09-30T11:50:47;98614.13;;;21.51;64.29
28665;BME280;15850;47.524;7.814;2023-09-30T11:53:16;98612.22;;;21.62;63.39
28665;BME280;15850;47.524;7.814;2023-09-30T11:55:41;98489.75;;;21.10;60.90
28665;BME280;15850;47.524;7.814;2023-09-30T11:58:07;98596.78;;;21.61;61.00
28665;BME280;15850;47.524;7.814;2023-09-30T12:00:34;98569.03;;;21.43;59.65
28665;BME280;15850;47.524;7.814;2023-09-30T12:02:59;98613.97;;;22.02;58.56
28665;BME280;15850;47.524;7.814;2023-09-30T12:05:25;98529.13;;;21.58;58.30
28665;BME280;15850;47.524;7.814;2023-09-30T12:07:50;98622.63;;;21.90;58.52
28665;BME280;15850;47.524;7.814;2023-09-30T12:10:16;98525.63;;;21.72;58.99
28665;BME280;15850;47.524;7.814;2023-09-30T12:12:41;98541.50;;;21.83;56.55
28665;BME280;15850;47.524;7.814;2023-09-30T12:15:08;98534.28;;;21.60;58.45
28665;BME280;15850;47.524;7.814;2023-09-30T12:17:35;98584.28;;;21.96;55.39
28665;BME280;15850;47.524;7.814;2023-09-30T12:20:00;98589.34;;;21.79;53.19
28665;BME280;15850;47.524;7.814;2023-09-30T12:22:26;98596.34;;;21.52;51.91
28665;BME280;15850;47.524;7.814;2023-09-30T12:24:51;98580.16;;;21.61;51.46
28665;BME280;15850;47.524;7.814;2023-09-30T12:27:17;98584.19;;;21.81;53.44
28665;BME280;15850;47.524;7.814;2023-09-30T12:29:42;98581.94;;;22.12;52.92
28665;BME280;15850;47.524;7.814;2023-09-30T12:32:08;98456.75;;;21.53;52.98
28665;BME280;15850;47.524;7.814;2023-09-30T12:34:35;98576.50;;;22.62;53.56
28665;BME280;15850;47.524;7.814;2023-09-30T12:37:00;98353.00;;;21.18;54.76
28665;BME280;15850;47.524;7.814;2023-09-30T12:39:26;98568.47;;;22.07;55.53
28665;BME280;15850;47.524;7.814;2023-09-30T12:41:51;98457.56;;;21.75;55.36
28665;BME280;15850;47.524;7.814;2023-09-30T12:44:17;98574.88;;;22.47;55.06
28665;BME280;15850;47.524;7.814;2023-09-30T12:46:43;98521.41;;;22.54;55.76
28665;BME280;15850;47.524;7.814;2023-09-30T12:49:08;98575.69;;;22.51;56.59
28665;BME280;15850;47.524;7.814;2023-09-30T12:51:36;98460.63;;;21.38;54.03
28665;BME280;15850;47.524;7.814;2023-09-30T12:54:02;98548.69;;;22.12;55.82
28665;BME280;15850;47.524;7.814;2023-09-30T12:56:28;98544.78;;;22.56;56.58
28665;BME280;15850;47.524;7.814;2023-09-30T12:58:53;98025.94;;;18.78;56.03
28665;BME280;15850;47.524;7.814;2023-09-30T13:01:19;98552.72;;;22.47;56.01
28665;BME280;15850;47.524;7.814;2023-09-30T13:03:45;98266.38;;;20.75;55.48
28665;BME280;15850;47.524;7.814;2023-09-30T13:06:11;98551.09;;;22.21;54.29
28665;BME280;15850;47.524;7.814;2023-09-30T13:08:38;98540.75;;;22.00;55.60
28665;BME280;15850;47.524;7.814;2023-09-30T13:11:04;98474.63;;;21.98;57.63
28665;BME280;15850;47.524;7.814;2023-09-30T13:13:29;98574.47;;;22.88;55.55
28665;BME280;15850;47.524;7.814;2023-09-30T13:15:56;98475.84;;;22.58;53.03
28665;BME280;15850;47.524;7.814;2023-09-30T13:18:22;98114.97;;;20.32;53.33
28665;BME280;15850;47.524;7.814;2023-09-30T13:20:47;98344.75;;;21.32;53.55